sensor_id;sensor_type;location;lat;lon;timestamp;P1;durP1;ratioP1;P2;durP2;ratioP2
69951;SDS011;60406;48.408;13.392;2023-07-20T00:03:59;5.80;;;4.65;;
69951;SDS011;60406;48.408;13.392;2023-07-20T00:09:00;11.13;;;5.43;;
69951;SDS011;60406;48.408;13.392;2023-07-20T00:14:01;9.02;;;5.45;;
69951;SDS011;60406;48.408;13.392;2023-07-20T00:19:02;10.85;;;5.32;;
69951;SDS011;60406;48.408;13.392;2023-07-20T00:24:03;8.80;;;5.55;;
69951;SDS011;60406;48.408;13.392;2023-07-20T00:29:04;8.65;;;6.22;;
69951;SDS011;60406;48.408;13.392;2023-07-20T00:34:05;8.32;;;6.70;;
69951;SDS011;60406;48.408;13.392;2023-07-20T00:39:05;8.18;;;6.57;;
69951;SDS011;60406;48.408;13.392;2023-07-20T00:44:06;10.15;;;6.82;;
69951;SDS011;60406;48.408;13.392;2023-07-20T00:49:07;9.85;;;7.15;;
69951;SDS011;60406;48.408;13.392;2023-07-20T00:54:08;10.63;;;7.00;;
69951;SDS011;60406;48.408;13.392;2023-07-20T00:59:09;10.23;;;7.78;;
69951;SDS011;60406;48.408;13.392;2023-07-20T01:04:10;8.77;;;7.10;;
69951;SDS011;60406;48.408;13.392;2023-07-20T01:09:13;8.80;;;6.57;;
69951;SDS011;60406;48.408;13.392;2023-07-20T01:14:15;7.50;;;6.28;;
69951;SDS011;60406;48.408;13.392;2023-07-20T01:19:16;11.55;;;7.15;;
69951;SDS011;60406;48.408;13.392;2023-07-20T01:34:50;8.70;;;7.40;;
69951;SDS011;60406;48.408;13.392;2023-07-20T01:39:53;12.95;;;7.65;;
69951;SDS011;60406;48.408;13.392;2023-07-20T01:44:54;8.98;;;6.65;;
69951;SDS011;60406;48.408;13.392;2023-07-20T01:49:55;10.90;;;7.68;;
69951;SDS011;60406;48.408;13.392;2023-07-20T01:54:56;11.18;;;8.20;;
69951;SDS011;60406;48.408;13.392;2023-07-20T01:59:57;8.90;;;7.70;;
69951;SDS011;60406;48.408;13.392;2023-07-20T02:04:58;10.73;;;7.38;;
69951;SDS011;60406;48.408;13.392;2023-07-20T02:09:59;11.05;;;7.35;;
69951;SDS011;60406;48.408;13.392;2023-07-20T02:14:59;10.60;;;6.43;;
69951;SDS011;60406;48.408;13.392;2023-07-20T02:20:01;12.40;;;7.90;;
69951;SDS011;60406;48.408;13.392;2023-07-20T02:25:02;9.15;;;7.15;;
69951;SDS011;60406;48.408;13.392;2023-07-20T02:30:04;10.35;;;7.38;;
69951;SDS011;60406;48.408;13.392;2023-07-20T02:35:06;11.38;;;7.32;;
69951;SDS011;60406;48.408;13.392;2023-07-20T02:40:07;13.32;;;6.90;;
69951;SDS011;60406;48.408;13.392;2023-07-20T02:45:08;10.73;;;7.00;;
69951;SDS011;60406;48.408;13.392;2023-07-20T02:50:09;8.30;;;7.25;;
69951;SDS011;60406;48.408;13.392;2023-07-20T02:55:10;9.63;;;7.13;;
69951;SDS011;60406;48.408;13.392;2023-07-20T03:00:11;8.18;;;6.45;;
69951;SDS011;60406;48.408;13.392;2023-07-20T03:05:13;10.07;;;7.85;;
69951;SDS011;60406;48.408;13.392;2023-07-20T03:10:14;11.55;;;7.32;;
69951;SDS011;60406;48.408;13.392;2023-07-20T03:15:15;14.05;;;7.75;;
69951;SDS011;60406;48.408;13.392;2023-07-20T03:20:16;8.98;;;6.75;;
69951;SDS011;60406;48.408;13.392;2023-07-20T03:25:17;12.02;;;6.90;;
69951;SDS011;60406;48.408;13.392;2023-07-20T03:30:17;8.95;;;6.65;;
69951;SDS011;60406;48.408;13.392;2023-07-20T03:35:18;12.02;;;6.78;;
69951;SDS011;60406;48.408;13.392;2023-07-20T03:40:19;9.57;;;7.35;;
69951;SDS011;60406;48.408;13.392;2023-07-20T03:45:20;12.23;;;7.50;;
69951;SDS011;60406;48.408;13.392;2023-07-20T03:50:21;11.40;;;7.63;;
69951;SDS011;60406;48.408;13.392;2023-07-20T03:55:22;10.27;;;7.30;;
69951;SDS011;60406;48.408;13.392;2023-07-20T04:00:23;9.32;;;7.13;;
69951;SDS011;60406;48.408;13.392;2023-07-20T04:05:23;10.02;;;6.97;;
69951;SDS011;60406;48.408;13.392;2023-07-20T04:10:24;8.93;;;7.15;;
69951;SDS011;60406;48.408;13.392;2023-07-20T04:15:25;8.80;;;6.55;;
69951;SDS011;60406;48.408;13.392;2023-07-20T04:20:26;12.57;;;6.57;;
69951;SDS011;60406;48.408;13.392;2023-07-20T04:25:27;11.60;;;6.22;;
69951;SDS011;60406;48.408;13.392;2023-07-20T04:30:28;7.85;;;5.80;;
69951;SDS011;60406;48.408;13.392;2023-07-20T04:35:45;13.50;;;6.25;;
69951;SDS011;60406;48.408;13.392;2023-07-20T04:40:48;8.45;;;5.53;;
69951;SDS011;60406;48.408;13.392;2023-07-20T04:45:49;9.43;;;6.10;;
69951;SDS011;60406;48.408;13.392;2023-07-20T04:50:50;10.65;;;6.32;;
69951;SDS011;60406;48.408;13.392;2023-07-20T04:55:51;12.60;;;6.10;;
69951;SDS011;60406;48.408;13.392;2023-07-20T05:00:52;10.77;;;5.70;;
69951;SDS011;60406;48.408;13.392;2023-07-20T05:05:53;13.32;;;7.38;;
69951;SDS011;60406;48.408;13.392;2023-07-20T05:10:53;8.98;;;6.65;;
69951;SDS011;60406;48.408;13.392;2023-07-20T05:15:54;8.90;;;6.85;;
69951;SDS011;60406;48.408;13.392;2023-07-20T05:20:55;15.32;;;6.38;;
69951;SDS011;60406;48.408;13.392;2023-07-20T05:25:56;9.43;;;4.75;;
69951;SDS011;60406;48.408;13.392;2023-07-20T05:30:58;11.40;;;5.95;;
69951;SDS011;60406;48.408;13.392;2023-07-20T05:35:58;7.40;;;4.38;;
69951;SDS011;60406;48.408;13.392;2023-07-20T05:41:00;7.30;;;4.72;;
69951;SDS011;60406;48.408;13.392;2023-07-20T05:46:01;7.60;;;4.30;;
69951;SDS011;60406;48.408;13.392;2023-07-20T05:51:01;4.03;;;3.17;;
69951;SDS011;60406;48.408;13.392;2023-07-20T05:56:03;6.55;;;3.83;;
69951;SDS011;60406;48.408;13.392;2023-07-20T06:01:04;8.32;;;4.70;;
69951;SDS011;60406;48.408;13.392;2023-07-20T06:06:05;6.88;;;4.85;;
69951;SDS011;60406;48.408;13.392;2023-07-20T06:11:06;8.38;;;5.05;;
69951;SDS011;60406;48.408;13.392;2023-07-20T06:16:07;6.53;;;4.22;;
69951;SDS011;60406;48.408;13.392;2023-07-20T06:21:07;6.22;;;3.60;;
69951;SDS011;60406;48.408;13.392;2023-07-20T06:26:08;7.05;;;3.83;;
69951;SDS011;60406;48.408;13.392;2023-07-20T06:31:09;4.22;;;3.00;;
69951;SDS011;60406;48.408;13.392;2023-07-20T06:36:10;7.45;;;3.65;;
69951;SDS011;60406;48.408;13.392;2023-07-20T06:41:11;4.97;;;3.47;;
69951;SDS011;60406;48.408;13.392;2023-07-20T06:46:12;4.88;;;2.85;;
69951;SDS011;60406;48.408;13.392;2023-07-20T06:51:16;3.92;;;2.63;;
69951;SDS011;60406;48.408;13.392;2023-07-20T06:56:17;4.97;;;2.90;;
69951;SDS011;60406;48.408;13.392;2023-07-20T07:01:18;3.63;;;2.95;;
69951;SDS011;60406;48.408;13.392;2023-07-20T07:06:19;4.15;;;2.45;;
69951;SDS011;60406;48.408;13.392;2023-07-20T07:11:20;7.43;;;2.88;;
69951;SDS011;60406;48.408;13.392;2023-07-20T07:16:21;4.70;;;2.75;;
69951;SDS011;60406;48.408;13.392;2023-07-20T07:21:22;4.18;;;2.45;;
69951;SDS011;60406;48.408;13.392;2023-07-20T07:26:23;2.55;;;2.35;;
69951;SDS011;60406;48.408;13.392;2023-07-20T07:31:24;3.63;;;2.60;;
69951;SDS011;60406;48.408;13.392;2023-07-20T07:36:32;4.22;;;2.38;;
69951;SDS011;60406;48.408;13.392;2023-07-20T07:41:33;3.28;;;1.90;;
69951;SDS011;60406;48.408;13.392;2023-07-20T07:46:34;4.28;;;2.33;;
69951;SDS011;60406;48.408;13.392;2023-07-20T07:51:35;3.33;;;2.25;;
69951;SDS011;60406;48.408;13.392;2023-07-20T07:56:35;5.75;;;2.20;;
69951;SDS011;60406;48.408;13.392;2023-07-20T08:01:36;5.35;;;2.50;;
69951;SDS011;60406;48.408;13.392;2023-07-20T08:06:37;9.02;;;2.30;;
69951;SDS011;60406;48.408;13.392;2023-07-20T08:11:39;3.05;;;2.53;;
69951;SDS011;60406;48.408;13.392;2023-07-20T08:16:40;3.92;;;2.53;;
69951;SDS011;60406;48.408;13.392;2023-07-20T08:21:41;3.88;;;2.38;;
69951;SDS011;60406;48.408;13.392;2023-07-20T08:26:42;8.02;;;2.38;;
69951;SDS011;60406;48.408;13.392;2023-07-20T08:31:42;4.07;;;2.40;;
69951;SDS011;60406;48.408;13.392;2023-07-20T08:36:43;6.88;;;3.88;;
69951;SDS011;60406;48.408;13.392;2023-07-20T08:41:44;4.38;;;2.53;;
69951;SDS011;60406;48.408;13.392;2023-07-20T08:46:46;5.03;;;2.25;;
69951;SDS011;60406;48.408;13.392;2023-07-20T08:51:48;4.28;;;2.20;;
69951;SDS011;60406;48.408;13.392;2023-07-20T08:56:49;3.00;;;1.80;;
69951;SDS011;60406;48.408;13.392;2023-07-20T09:01:50;2.00;;;1.80;;
69951;SDS011;60406;48.408;13.392;2023-07-20T09:06:52;2.75;;;1.80;;
69951;SDS011;60406;48.408;13.392;2023-07-20T09:11:53;2.65;;;1.48;;
69951;SDS011;60406;48.408;13.392;2023-07-20T09:16:54;2.80;;;2.10;;
69951;SDS011;60406;48.408;13.392;2023-07-20T09:21:55;5.55;;;2.10;;
69951;SDS011;60406;48.408;13.392;2023-07-20T09:26:56;3.25;;;2.33;;
69951;SDS011;60406;48.408;13.392;2023-07-20T09:32:00;6.07;;;2.08;;
69951;SDS011;60406;48.408;13.392;2023-07-20T09:37:05;4.25;;;2.05;;
69951;SDS011;60406;48.408;13.392;2023-07-20T09:42:05;2.10;;;1.83;;
69951;SDS011;60406;48.408;13.392;2023-07-20T09:47:06;2.95;;;2.13;;
69951;SDS011;60406;48.408;13.392;2023-07-20T09:52:11;2.78;;;2.30;;
69951;SDS011;60406;48.408;13.392;2023-07-20T09:57:12;4.47;;;2.10;;
69951;SDS011;60406;48.408;13.392;2023-07-20T10:02:30;5.10;;;2.20;;
69951;SDS011;60406;48.408;13.392;2023-07-20T10:07:33;3.95;;;2.00;;
69951;SDS011;60406;48.408;13.392;2023-07-20T10:12:37;3.63;;;1.98;;
69951;SDS011;60406;48.408;13.392;2023-07-20T10:17:40;3.08;;;1.90;;
69951;SDS011;60406;48.408;13.392;2023-07-20T10:22:53;2.47;;;1.83;;
69951;SDS011;60406;48.408;13.392;2023-07-20T10:27:54;5.00;;;2.15;;
69951;SDS011;60406;48.408;13.392;2023-07-20T10:32:55;3.30;;;2.22;;
69951;SDS011;60406;48.408;13.392;2023-07-20T10:38:00;2.97;;;2.00;;
69951;SDS011;60406;48.408;13.392;2023-07-20T10:43:02;3.22;;;2.00;;
69951;SDS011;60406;48.408;13.392;2023-07-20T10:48:14;3.25;;;1.85;;
69951;SDS011;60406;48.408;13.392;2023-07-20T10:53:24;3.13;;;2.10;;
69951;SDS011;60406;48.408;13.392;2023-07-20T10:58:25;3.40;;;2.20;;
69951;SDS011;60406;48.408;13.392;2023-07-20T11:03:27;2.05;;;1.80;;
69951;SDS011;60406;48.408;13.392;2023-07-20T11:08:38;2.63;;;1.88;;
69951;SDS011;60406;48.408;13.392;2023-07-20T11:13:53;4.75;;;2.00;;
69951;SDS011;60406;48.408;13.392;2023-07-20T11:19:00;2.67;;;1.90;;
69951;SDS011;60406;48.408;13.392;2023-07-20T11:24:05;6.13;;;2.03;;
69951;SDS011;60406;48.408;13.392;2023-07-20T11:29:06;2.33;;;1.98;;
69951;SDS011;60406;48.408;13.392;2023-07-20T11:34:09;9.35;;;1.98;;
69951;SDS011;60406;48.408;13.392;2023-07-20T11:39:14;3.55;;;1.85;;
69951;SDS011;60406;48.408;13.392;2023-07-20T11:44:18;2.50;;;1.95;;
69951;SDS011;60406;48.408;13.392;2023-07-20T11:49:20;3.63;;;1.92;;
69951;SDS011;60406;48.408;13.392;2023-07-20T11:54:20;7.95;;;2.20;;
69951;SDS011;60406;48.408;13.392;2023-07-20T11:59:21;3.00;;;2.03;;
69951;SDS011;60406;48.408;13.392;2023-07-20T12:04:23;2.28;;;1.95;;
69951;SDS011;60406;48.408;13.392;2023-07-20T12:09:23;2.72;;;1.88;;
69951;SDS011;60406;48.408;13.392;2023-07-20T12:14:25;3.35;;;1.65;;
69951;SDS011;60406;48.408;13.392;2023-07-20T12:19:25;2.30;;;1.58;;
69951;SDS011;60406;48.408;13.392;2023-07-20T12:24:26;3.05;;;1.77;;
69951;SDS011;60406;48.408;13.392;2023-07-20T12:29:27;7.10;;;1.80;;
69951;SDS011;60406;48.408;13.392;2023-07-20T12:34:28;1.92;;;1.73;;
69951;SDS011;60406;48.408;13.392;2023-07-20T12:39:29;1.58;;;1.48;;
69951;SDS011;60406;48.408;13.392;2023-07-20T12:44:30;2.90;;;2.50;;
69951;SDS011;60406;48.408;13.392;2023-07-20T12:49:31;2.67;;;1.70;;
69951;SDS011;60406;48.408;13.392;2023-07-20T12:54:32;1.90;;;1.52;;
69951;SDS011;60406;48.408;13.392;2023-07-20T12:59:32;2.92;;;1.63;;
69951;SDS011;60406;48.408;13.392;2023-07-20T13:04:33;4.22;;;1.52;;
69951;SDS011;60406;48.408;13.392;2023-07-20T13:09:34;1.40;;;1.30;;
69951;SDS011;60406;48.408;13.392;2023-07-20T13:14:35;5.07;;;1.60;;
69951;SDS011;60406;48.408;13.392;2023-07-20T13:19:36;2.60;;;1.60;;
69951;SDS011;60406;48.408;13.392;2023-07-20T13:24:37;4.90;;;2.00;;
69951;SDS011;60406;48.408;13.392;2023-07-20T13:29:38;3.83;;;1.77;;
69951;SDS011;60406;48.408;13.392;2023-07-20T13:34:38;2.25;;;1.90;;
69951;SDS011;60406;48.408;13.392;2023-07-20T13:39:39;2.90;;;1.73;;
69951;SDS011;60406;48.408;13.392;2023-07-20T13:44:40;2.75;;;1.60;;
69951;SDS011;60406;48.408;13.392;2023-07-20T13:49:41;2.67;;;1.80;;
69951;SDS011;60406;48.408;13.392;2023-07-20T13:54:42;2.03;;;1.40;;
69951;SDS011;60406;48.408;13.392;2023-07-20T13:59:43;4.18;;;1.63;;
69951;SDS011;60406;48.408;13.392;2023-07-20T14:04:44;1.87;;;1.60;;
69951;SDS011;60406;48.408;13.392;2023-07-20T14:09:45;2.03;;;1.83;;
69951;SDS011;60406;48.408;13.392;2023-07-20T14:14:46;6.30;;;1.33;;
69951;SDS011;60406;48.408;13.392;2023-07-20T14:19:47;2.83;;;1.60;;
69951;SDS011;60406;48.408;13.392;2023-07-20T14:24:48;2.43;;;1.33;;
69951;SDS011;60406;48.408;13.392;2023-07-20T14:29:48;1.55;;;1.23;;
69951;SDS011;60406;48.408;13.392;2023-07-20T14:34:49;1.87;;;1.40;;
69951;SDS011;60406;48.408;13.392;2023-07-20T14:39:50;1.93;;;1.27;;
69951;SDS011;60406;48.408;13.392;2023-07-20T14:44:51;2.40;;;1.60;;
69951;SDS011;60406;48.408;13.392;2023-07-20T14:49:52;1.70;;;1.60;;
69951;SDS011;60406;48.408;13.392;2023-07-20T14:54:53;2.55;;;1.70;;
69951;SDS011;60406;48.408;13.392;2023-07-20T14:59:54;2.42;;;1.70;;
69951;SDS011;60406;48.408;13.392;2023-07-20T15:04:54;4.97;;;2.00;;
69951;SDS011;60406;48.408;13.392;2023-07-20T15:09:55;2.83;;;2.05;;
69951;SDS011;60406;48.408;13.392;2023-07-20T15:20:04;3.45;;;2.00;;
69951;SDS011;60406;48.408;13.392;2023-07-20T15:25:07;5.72;;;1.42;;
69951;SDS011;60406;48.408;13.392;2023-07-20T15:30:09;2.23;;;1.63;;
69951;SDS011;60406;48.408;13.392;2023-07-20T15:35:10;3.28;;;1.77;;
69951;SDS011;60406;48.408;13.392;2023-07-20T15:40:11;3.53;;;1.80;;
69951;SDS011;60406;48.408;13.392;2023-07-20T15:45:12;3.85;;;1.83;;
69951;SDS011;60406;48.408;13.392;2023-07-20T15:50:13;2.05;;;1.42;;
69951;SDS011;60406;48.408;13.392;2023-07-20T15:55:14;3.03;;;1.83;;
69951;SDS011;60406;48.408;13.392;2023-07-20T16:00:14;3.22;;;1.63;;
69951;SDS011;60406;48.408;13.392;2023-07-20T16:05:16;3.80;;;1.52;;
69951;SDS011;60406;48.408;13.392;2023-07-20T16:10:16;3.60;;;1.58;;
69951;SDS011;60406;48.408;13.392;2023-07-20T16:15:17;4.03;;;2.00;;
69951;SDS011;60406;48.408;13.392;2023-07-20T16:20:18;2.10;;;1.52;;
69951;SDS011;60406;48.408;13.392;2023-07-20T16:25:19;1.65;;;1.52;;
69951;SDS011;60406;48.408;13.392;2023-07-20T16:30:20;2.35;;;1.70;;
69951;SDS011;60406;48.408;13.392;2023-07-20T16:35:21;2.13;;;1.52;;
69951;SDS011;60406;48.408;13.392;2023-07-20T16:40:22;3.97;;;1.38;;
69951;SDS011;60406;48.408;13.392;2023-07-20T16:45:22;1.63;;;1.50;;
69951;SDS011;60406;48.408;13.392;2023-07-20T16:50:24;2.75;;;1.40;;
69951;SDS011;60406;48.408;13.392;2023-07-20T16:55:24;3.17;;;1.50;;
69951;SDS011;60406;48.408;13.392;2023-07-20T17:00:25;3.50;;;1.55;;
69951;SDS011;60406;48.408;13.392;2023-07-20T17:05:26;3.47;;;1.42;;
69951;SDS011;60406;48.408;13.392;2023-07-20T17:10:27;3.45;;;1.52;;
69951;SDS011;60406;48.408;13.392;2023-07-20T17:15:28;8.10;;;1.60;;
69951;SDS011;60406;48.408;13.392;2023-07-20T17:20:29;3.13;;;1.60;;
69951;SDS011;60406;48.408;13.392;2023-07-20T17:25:30;3.08;;;1.40;;
69951;SDS011;60406;48.408;13.392;2023-07-20T17:30:31;2.90;;;1.60;;
69951;SDS011;60406;48.408;13.392;2023-07-20T17:35:33;4.40;;;1.70;;
69951;SDS011;60406;48.408;13.392;2023-07-20T17:40:34;3.28;;;1.70;;
69951;SDS011;60406;48.408;13.392;2023-07-20T17:45:35;2.28;;;1.85;;
69951;SDS011;60406;48.408;13.392;2023-07-20T17:50:36;3.35;;;1.73;;
69951;SDS011;60406;48.408;13.392;2023-07-20T17:55:37;1.95;;;1.58;;
69951;SDS011;60406;48.408;13.392;2023-07-20T18:00:38;4.45;;;1.50;;
69951;SDS011;60406;48.408;13.392;2023-07-20T18:05:39;3.38;;;1.63;;
69951;SDS011;60406;48.408;13.392;2023-07-20T18:10:39;3.42;;;1.65;;
69951;SDS011;60406;48.408;13.392;2023-07-20T18:15:40;3.55;;;2.28;;
69951;SDS011;60406;48.408;13.392;2023-07-20T18:20:41;3.05;;;1.70;;
69951;SDS011;60406;48.408;13.392;2023-07-20T18:25:42;5.95;;;2.08;;
69951;SDS011;60406;48.408;13.392;2023-07-20T18:30:43;2.60;;;2.22;;
69951;SDS011;60406;48.408;13.392;2023-07-20T18:35:44;6.30;;;1.83;;
69951;SDS011;60406;48.408;13.392;2023-07-20T18:40:45;5.25;;;2.60;;
69951;SDS011;60406;48.408;13.392;2023-07-20T18:45:46;6.93;;;1.73;;
69951;SDS011;60406;48.408;13.392;2023-07-20T18:50:47;2.80;;;2.05;;
69951;SDS011;60406;48.408;13.392;2023-07-20T18:55:48;6.28;;;2.20;;
69951;SDS011;60406;48.408;13.392;2023-07-20T19:00:48;4.25;;;2.20;;
69951;SDS011;60406;48.408;13.392;2023-07-20T19:05:50;3.08;;;2.13;;
69951;SDS011;60406;48.408;13.392;2023-07-20T19:10:51;5.72;;;2.50;;
69951;SDS011;60406;48.408;13.392;2023-07-20T19:15:52;6.72;;;2.33;;
69951;SDS011;60406;48.408;13.392;2023-07-20T19:20:52;9.15;;;2.75;;
69951;SDS011;60406;48.408;13.392;2023-07-20T19:25:53;7.53;;;2.50;;
69951;SDS011;60406;48.408;13.392;2023-07-20T19:30:54;4.63;;;2.28;;
69951;SDS011;60406;48.408;13.392;2023-07-20T19:35:55;2.15;;;1.80;;
69951;SDS011;60406;48.408;13.392;2023-07-20T19:40:56;3.90;;;2.42;;
69951;SDS011;60406;48.408;13.392;2023-07-20T19:45:57;3.20;;;2.13;;
69951;SDS011;60406;48.408;13.392;2023-07-20T19:50:58;3.88;;;2.90;;
69951;SDS011;60406;48.408;13.392;2023-07-20T19:56:00;3.95;;;2.30;;
69951;SDS011;60406;48.408;13.392;2023-07-20T20:01:01;4.57;;;2.28;;
69951;SDS011;60406;48.408;13.392;2023-07-20T20:06:02;4.95;;;2.58;;
69951;SDS011;60406;48.408;13.392;2023-07-20T20:11:03;3.70;;;2.40;;
69951;SDS011;60406;48.408;13.392;2023-07-20T20:16:04;6.72;;;2.80;;
69951;SDS011;60406;48.408;13.392;2023-07-20T20:21:05;5.38;;;2.10;;
69951;SDS011;60406;48.408;13.392;2023-07-20T20:26:06;11.85;;;2.65;;
69951;SDS011;60406;48.408;13.392;2023-07-20T20:31:07;6.25;;;2.05;;
69951;SDS011;60406;48.408;13.392;2023-07-20T20:36:08;6.05;;;2.70;;
69951;SDS011;60406;48.408;13.392;2023-07-20T20:41:09;4.57;;;2.53;;
69951;SDS011;60406;48.408;13.392;2023-07-20T20:46:09;4.43;;;2.70;;
69951;SDS011;60406;48.408;13.392;2023-07-20T20:51:11;5.28;;;2.72;;
69951;SDS011;60406;48.408;13.392;2023-07-20T20:56:11;7.93;;;2.75;;
69951;SDS011;60406;48.408;13.392;2023-07-20T21:01:12;5.40;;;2.42;;
69951;SDS011;60406;48.408;13.392;2023-07-20T21:06:13;2.63;;;2.35;;
69951;SDS011;60406;48.408;13.392;2023-07-20T21:11:14;9.20;;;2.50;;
69951;SDS011;60406;48.408;13.392;2023-07-20T21:16:15;8.18;;;2.90;;
69951;SDS011;60406;48.408;13.392;2023-07-20T21:21:16;4.45;;;2.40;;
69951;SDS011;60406;48.408;13.392;2023-07-20T21:26:17;3.55;;;3.00;;
69951;SDS011;60406;48.408;13.392;2023-07-20T21:31:17;12.82;;;5.35;;
69951;SDS011;60406;48.408;13.392;2023-07-20T21:36:18;11.00;;;3.45;;
69951;SDS011;60406;48.408;13.392;2023-07-20T21:41:19;7.57;;;3.85;;
69951;SDS011;60406;48.408;13.392;2023-07-20T21:46:20;3.35;;;2.45;;
69951;SDS011;60406;48.408;13.392;2023-07-20T21:51:21;5.40;;;3.00;;
69951;SDS011;60406;48.408;13.392;2023-07-20T21:56:22;5.50;;;3.35;;
69951;SDS011;60406;48.408;13.392;2023-07-20T22:01:23;7.05;;;3.95;;
69951;SDS011;60406;48.408;13.392;2023-07-20T22:06:23;8.82;;;3.03;;
69951;SDS011;60406;48.408;13.392;2023-07-20T22:11:24;10.95;;;3.25;;
69951;SDS011;60406;48.408;13.392;2023-07-20T22:16:25;6.13;;;2.78;;
69951;SDS011;60406;48.408;13.392;2023-07-20T22:21:26;13.40;;;2.78;;
69951;SDS011;60406;48.408;13.392;2023-07-20T22:26:27;7.75;;;3.00;;
69951;SDS011;60406;48.408;13.392;2023-07-20T22:31:28;4.97;;;3.22;;
69951;SDS011;60406;48.408;13.392;2023-07-20T22:36:29;4.53;;;3.47;;
69951;SDS011;60406;48.408;13.392;2023-07-20T22:41:30;8.05;;;3.45;;
69951;SDS011;60406;48.408;13.392;2023-07-20T22:46:31;4.30;;;3.45;;
69951;SDS011;60406;48.408;13.392;2023-07-20T22:51:32;6.13;;;3.58;;
69951;SDS011;60406;48.408;13.392;2023-07-20T22:56:33;5.22;;;3.78;;
69951;SDS011;60406;48.408;13.392;2023-07-20T23:01:33;6.95;;;4.07;;
69951;SDS011;60406;48.408;13.392;2023-07-20T23:06:34;5.30;;;3.00;;
69951;SDS011;60406;48.408;13.392;2023-07-20T23:11:35;5.93;;;3.85;;
69951;SDS011;60406;48.408;13.392;2023-07-20T23:16:36;7.30;;;3.65;;
69951;SDS011;60406;48.408;13.392;2023-07-20T23:21:37;5.55;;;3.50;;
69951;SDS011;60406;48.408;13.392;2023-07-20T23:26:38;8.52;;;3.92;;
69951;SDS011;60406;48.408;13.392;2023-07-20T23:31:39;5.45;;;3.65;;
69951;SDS011;60406;48.408;13.392;2023-07-20T23:36:40;6.40;;;3.08;;
69951;SDS011;60406;48.408;13.392;2023-07-20T23:41:40;6.45;;;4.10;;
69951;SDS011;60406;48.408;13.392;2023-07-20T23:46:41;5.25;;;3.08;;
69951;SDS011;60406;48.408;13.392;2023-07-20T23:51:42;10.15;;;3.67;;
69951;SDS011;60406;48.408;13.392;2023-07-20T23:56:43;6.97;;;3.75;;
